createdAt,value
2018-12-31T00:02:09.146Z,73.80
2018-12-31T00:04:38.943Z,59.03
2018-12-31T00:07:08.598Z,52.30
2018-12-31T00:09:38.017Z,52.23
2018-12-31T00:12:07.665Z,49.50
2018-12-31T00:14:37.200Z,42.67
2018-12-31T00:17:06.775Z,66.87
2018-12-31T00:19:36.396Z,45.57
2018-12-31T00:22:06.927Z,37.03
2018-12-31T00:24:36.353Z,52.50
2018-12-31T00:27:05.966Z,46.53
2018-12-31T00:29:35.571Z,43.90
2018-12-31T00:32:05.077Z,43.00
2018-12-31T00:34:34.546Z,40.33
2018-12-31T00:37:04.121Z,40.30
2018-12-31T00:39:33.578Z,37.07
2018-12-31T00:42:03.072Z,39.70
2018-12-31T00:44:32.774Z,42.00
2018-12-31T00:47:02.421Z,39.03
2018-12-31T00:49:31.957Z,44.60
2018-12-31T00:52:01.396Z,45.13
2018-12-31T00:54:31.007Z,43.47
2018-12-31T00:57:00.597Z,40.90
2018-12-31T00:59:30.199Z,36.90
2018-12-31T01:01:59.626Z,41.67
2018-12-31T01:04:29.117Z,44.90
2018-12-31T01:06:58.659Z,45.00
2018-12-31T01:09:28.139Z,36.73
2018-12-31T01:11:57.694Z,38.60
2018-12-31T01:14:27.124Z,39.83
2018-12-31T01:16:56.780Z,39.83
2018-12-31T01:19:26.254Z,37.33
2018-12-31T01:21:55.794Z,32.37
2018-12-31T01:24:25.450Z,36.83
2018-12-31T01:26:55.089Z,31.40
2018-12-31T01:29:24.685Z,33.43
2018-12-31T01:31:54.300Z,34.30
2018-12-31T01:34:23.829Z,29.73
2018-12-31T01:36:53.267Z,33.07
2018-12-31T01:39:22.914Z,31.77
2018-12-31T01:41:52.548Z,28.50
2018-12-31T01:44:22.025Z,35.93
2018-12-31T01:46:51.566Z,35.00
2018-12-31T01:49:21.675Z,32.87
2018-12-31T01:51:51.176Z,33.60
2018-12-31T01:54:20.659Z,34.60
2018-12-31T01:56:50.185Z,46.57
2018-12-31T01:59:19.664Z,33.23
2018-12-31T02:01:49.265Z,26.93
2018-12-31T02:04:18.758Z,45.87
2018-12-31T02:06:48.194Z,28.17
2018-12-31T02:09:18.310Z,27.73
2018-12-31T02:11:47.825Z,43.00
2018-12-31T02:14:17.408Z,33.20
2018-12-31T02:16:46.767Z,26.93
2018-12-31T02:19:16.215Z,31.63
2018-12-31T02:21:45.691Z,30.90
2018-12-31T02:24:15.108Z,28.30
2018-12-31T02:26:44.615Z,34.53
2018-12-31T02:29:14.117Z,31.00
2018-12-31T02:31:43.673Z,26.23
2018-12-31T02:34:13.093Z,26.20
2018-12-31T02:36:42.564Z,28.17
2018-12-31T02:39:12.163Z,27.33
2018-12-31T02:41:41.657Z,30.87
2018-12-31T02:44:11.135Z,33.93
2018-12-31T02:46:40.966Z,30.70
2018-12-31T02:49:10.384Z,30.60
2018-12-31T02:51:39.962Z,24.53
2018-12-31T02:54:09.461Z,32.93
2018-12-31T02:56:39.109Z,38.47
2018-12-31T02:59:08.646Z,51.33
2018-12-31T03:01:38.087Z,49.13
2018-12-31T03:04:07.692Z,39.97
2018-12-31T03:06:37.331Z,43.77
2018-12-31T03:09:08.415Z,44.60
2018-12-31T03:11:37.840Z,39.57
2018-12-31T03:14:07.370Z,46.63
2018-12-31T03:16:36.977Z,49.03
2018-12-31T03:19:06.529Z,37.70
2018-12-31T03:21:36.005Z,62.83
2018-12-31T03:24:05.606Z,65.90
2018-12-31T03:26:35.131Z,78.83
2018-12-31T03:29:04.661Z,80.23
2018-12-31T03:31:34.141Z,76.50
2018-12-31T03:34:03.628Z,89.70
2018-12-31T03:36:33.085Z,89.17
2018-12-31T03:39:02.876Z,91.40
2018-12-31T03:41:32.357Z,89.20
2018-12-31T03:44:01.892Z,97.07
2018-12-31T03:46:31.385Z,88.30
2018-12-31T03:49:00.887Z,83.00
2018-12-31T03:51:30.341Z,87.20
2018-12-31T03:53:59.894Z,88.10
2018-12-31T03:56:29.492Z,83.73
2018-12-31T03:58:58.984Z,84.67
2018-12-31T04:01:28.637Z,91.33
2018-12-31T04:03:58.254Z,86.13
2018-12-31T04:06:27.921Z,82.50
2018-12-31T04:08:57.413Z,70.87
2018-12-31T04:11:27.007Z,62.70
2018-12-31T04:13:56.508Z,65.47
2018-12-31T04:16:26.000Z,63.97
2018-12-31T04:18:55.646Z,64.00
2018-12-31T04:21:25.231Z,76.47
2018-12-31T04:23:54.746Z,66.73
2018-12-31T04:26:24.170Z,76.40
2018-12-31T04:28:53.800Z,59.30
2018-12-31T04:31:23.485Z,70.17
2018-12-31T04:33:52.916Z,69.63
2018-12-31T04:36:22.386Z,60.50
2018-12-31T04:38:51.833Z,93.73
2018-12-31T04:41:21.371Z,93.53
2018-12-31T04:43:50.932Z,69.70
2018-12-31T04:46:20.408Z,63.33
2018-12-31T04:48:49.907Z,71.00
2018-12-31T04:51:19.508Z,66.20
2018-12-31T04:53:49.067Z,64.97
2018-12-31T04:56:18.517Z,57.67
2018-12-31T04:58:48.317Z,47.47
2018-12-31T05:01:18.981Z,51.60
2018-12-31T05:03:48.407Z,57.50
2018-12-31T05:06:17.832Z,53.70
2018-12-31T05:08:47.346Z,50.80
2018-12-31T05:11:16.895Z,50.07
2018-12-31T05:13:46.384Z,46.47
2018-12-31T05:16:15.907Z,49.30
2018-12-31T05:18:45.397Z,49.70
2018-12-31T05:21:14.892Z,70.47
2018-12-31T05:23:44.528Z,55.90
2018-12-31T05:26:14.011Z,52.07
2018-12-31T05:28:43.429Z,81.77
2018-12-31T05:31:13.025Z,62.57
2018-12-31T05:33:42.649Z,57.00
2018-12-31T05:36:12.125Z,56.20
2018-12-31T05:38:41.765Z,53.87
2018-12-31T05:41:11.213Z,76.63
2018-12-31T05:43:40.790Z,106.37
2018-12-31T05:46:10.307Z,91.03
2018-12-31T05:48:39.819Z,109.13
2018-12-31T05:51:09.298Z,79.73
2018-12-31T05:53:38.910Z,78.03
2018-12-31T05:56:08.503Z,67.73
2018-12-31T05:58:38.091Z,59.27
2018-12-31T06:01:07.616Z,52.17
2018-12-31T06:03:37.332Z,55.53
2018-12-31T06:06:06.831Z,61.63
2018-12-31T06:08:36.379Z,51.83
2018-12-31T06:11:05.762Z,55.50
2018-12-31T06:13:35.255Z,56.40
2018-12-31T06:16:04.712Z,52.67
2018-12-31T06:18:34.250Z,52.87
2018-12-31T06:21:03.691Z,46.50
2018-12-31T06:23:33.087Z,45.90
2018-12-31T06:26:02.627Z,53.83
2018-12-31T06:28:32.115Z,73.17
2018-12-31T06:31:01.863Z,67.57
2018-12-31T06:33:31.314Z,58.73
2018-12-31T06:36:00.816Z,60.27
2018-12-31T06:38:30.246Z,51.37
2018-12-31T06:40:59.681Z,67.40
2018-12-31T06:43:29.236Z,61.73
2018-12-31T06:45:58.822Z,66.33
2018-12-31T06:48:28.284Z,89.87
2018-12-31T06:50:57.733Z,88.83
2018-12-31T06:53:27.252Z,79.00
2018-12-31T06:55:56.719Z,104.83
2018-12-31T06:58:26.223Z,85.33
2018-12-31T07:00:55.655Z,71.20
2018-12-31T07:03:25.127Z,77.83
2018-12-31T07:05:54.671Z,77.67
2018-12-31T07:08:24.200Z,78.83
2018-12-31T07:10:53.776Z,85.67
2018-12-31T07:13:23.265Z,79.33
2018-12-31T07:15:52.815Z,76.07
2018-12-31T07:18:22.481Z,73.60
2018-12-31T07:20:51.880Z,74.77
2018-12-31T07:23:21.363Z,80.27
2018-12-31T07:25:50.836Z,70.07
2018-12-31T07:28:20.260Z,71.77
2018-12-31T07:30:49.726Z,72.70
2018-12-31T07:33:19.308Z,70.73
2018-12-31T07:35:48.791Z,74.20
2018-12-31T07:38:18.279Z,66.00
2018-12-31T07:40:47.736Z,78.97
2018-12-31T07:43:17.200Z,75.73
2018-12-31T07:45:46.789Z,80.30
2018-12-31T07:48:16.837Z,70.73
2018-12-31T07:50:46.268Z,70.40
2018-12-31T07:53:16.615Z,72.70
2018-12-31T07:55:46.154Z,70.57
2018-12-31T07:58:15.791Z,68.37
2018-12-31T08:00:45.325Z,69.13
2018-12-31T08:03:15.679Z,62.40
2018-12-31T08:05:45.349Z,76.17
2018-12-31T08:08:14.800Z,71.40
2018-12-31T08:10:44.217Z,56.97
2018-12-31T08:13:13.749Z,56.10
2018-12-31T08:15:43.183Z,65.90
2018-12-31T08:18:13.185Z,71.77
2018-12-31T08:20:42.755Z,54.70
2018-12-31T08:23:12.131Z,57.57
2018-12-31T08:25:41.669Z,81.10
2018-12-31T08:28:11.162Z,56.70
2018-12-31T08:30:40.654Z,49.33
2018-12-31T08:33:10.361Z,54.60
2018-12-31T08:35:39.852Z,48.20
2018-12-31T08:38:09.299Z,46.80
2018-12-31T08:40:38.798Z,108.67
2018-12-31T08:43:08.527Z,99.83
2018-12-31T08:45:38.148Z,92.53
2018-12-31T08:48:07.636Z,89.87
2018-12-31T08:50:37.219Z,76.37
2018-12-31T08:53:06.737Z,65.93
2018-12-31T08:55:36.168Z,65.20
2018-12-31T08:58:05.757Z,53.60
2018-12-31T09:00:35.354Z,35.37
2018-12-31T09:03:04.756Z,43.97
2018-12-31T09:05:34.318Z,40.80
2018-12-31T09:08:03.880Z,39.03
2018-12-31T09:10:33.370Z,48.60
2018-12-31T09:13:02.790Z,66.97
2018-12-31T09:15:32.383Z,42.30
2018-12-31T09:18:01.851Z,46.37
2018-12-31T09:20:31.369Z,33.53
2018-12-31T09:23:01.017Z,34.10
2018-12-31T09:25:30.554Z,39.73
2018-12-31T09:27:59.996Z,36.20
2018-12-31T09:30:29.517Z,44.30
2018-12-31T09:32:59.016Z,40.23
2018-12-31T09:35:28.451Z,33.90
2018-12-31T09:37:57.981Z,38.00
2018-12-31T09:40:27.562Z,38.73
2018-12-31T09:42:57.042Z,39.43
2018-12-31T09:45:26.461Z,30.87
2018-12-31T09:47:56.086Z,48.57
2018-12-31T09:50:25.577Z,52.07
2018-12-31T09:52:55.069Z,42.73
2018-12-31T09:55:24.578Z,42.20
2018-12-31T09:57:54.670Z,47.17
2018-12-31T10:00:24.201Z,40.23
2018-12-31T10:02:53.819Z,60.33
2018-12-31T10:05:23.367Z,34.57
2018-12-31T10:07:52.828Z,44.13
2018-12-31T10:10:22.260Z,46.97
2018-12-31T10:12:55.136Z,35.70
2018-12-31T10:15:24.577Z,45.37
2018-12-31T10:17:54.097Z,34.90
2018-12-31T10:20:23.647Z,37.40
2018-12-31T10:22:53.129Z,36.60
2018-12-31T10:25:22.631Z,36.80
2018-12-31T10:27:52.300Z,39.77
2018-12-31T10:30:21.888Z,32.83
2018-12-31T10:32:53.022Z,36.00
2018-12-31T10:35:22.616Z,57.57
2018-12-31T10:37:58.637Z,40.13
2018-12-31T10:40:28.329Z,39.50
2018-12-31T10:42:57.983Z,34.10
2018-12-31T10:45:27.498Z,36.43
2018-12-31T10:47:56.930Z,56.57
2018-12-31T10:50:26.347Z,20.00
2018-12-31T10:52:55.919Z,27.40
2018-12-31T10:55:25.306Z,29.10
2018-12-31T10:57:54.808Z,59.40
2018-12-31T11:00:24.324Z,25.97
2018-12-31T11:02:53.783Z,26.43
2018-12-31T11:05:23.334Z,19.23
2018-12-31T11:07:52.838Z,23.20
2018-12-31T11:10:22.339Z,20.33
2018-12-31T11:12:51.787Z,43.00
2018-12-31T11:15:21.296Z,23.57
2018-12-31T11:17:50.695Z,28.60
2018-12-31T11:20:20.115Z,62.97
2018-12-31T11:22:49.613Z,35.63
2018-12-31T11:25:19.145Z,34.27
2018-12-31T11:27:48.548Z,38.20
2018-12-31T11:30:18.122Z,39.83
2018-12-31T11:32:47.623Z,51.70
2018-12-31T11:35:17.026Z,28.80
2018-12-31T11:37:46.528Z,31.53
2018-12-31T11:40:16.126Z,42.37
2018-12-31T11:42:45.533Z,32.00
2018-12-31T11:45:14.947Z,39.67
2018-12-31T11:47:44.475Z,53.23
2018-12-31T11:50:13.929Z,37.13
2018-12-31T11:52:43.360Z,48.80
2018-12-31T11:55:13.036Z,49.50
2018-12-31T11:57:42.589Z,50.13
2018-12-31T12:00:12.000Z,58.53
2018-12-31T12:02:41.478Z,59.03
2018-12-31T12:05:11.039Z,27.00
2018-12-31T12:07:40.549Z,32.50
2018-12-31T12:10:09.978Z,37.17
2018-12-31T12:12:39.443Z,28.20
2018-12-31T12:15:08.831Z,42.07
2018-12-31T12:17:38.329Z,52.43
2018-12-31T12:20:07.847Z,58.10
2018-12-31T12:22:38.970Z,52.77
2018-12-31T12:25:08.388Z,30.43
2018-12-31T12:27:37.887Z,34.67
2018-12-31T12:30:08.458Z,40.33
2018-12-31T12:32:37.919Z,50.07
2018-12-31T12:35:07.564Z,50.43
2018-12-31T12:37:37.064Z,30.47
2018-12-31T12:40:06.780Z,47.37
2018-12-31T12:42:36.239Z,25.60
2018-12-31T12:45:06.239Z,44.13
2018-12-31T12:47:35.673Z,27.80
2018-12-31T12:50:05.360Z,21.60
2018-12-31T12:52:34.823Z,29.07
2018-12-31T12:55:04.278Z,43.50
2018-12-31T12:57:33.771Z,53.07
2018-12-31T13:00:03.301Z,28.17
2018-12-31T13:02:32.701Z,33.70
2018-12-31T13:05:03.873Z,26.10
2018-12-31T13:07:33.432Z,30.17
2018-12-31T13:10:02.966Z,43.70
2018-12-31T13:12:32.444Z,72.53
2018-12-31T13:15:02.030Z,78.53
2018-12-31T13:17:31.981Z,44.13
2018-12-31T13:20:01.886Z,37.73
2018-12-31T13:22:31.434Z,36.63
2018-12-31T13:25:00.937Z,41.30
2018-12-31T13:27:30.380Z,36.67
2018-12-31T13:29:59.793Z,28.13
2018-12-31T13:32:29.552Z,49.90
2018-12-31T13:34:59.023Z,60.37
2018-12-31T13:37:28.513Z,47.43
2018-12-31T13:39:57.977Z,41.77
2018-12-31T13:42:27.406Z,44.27
2018-12-31T13:44:56.993Z,30.00
2018-12-31T13:47:26.473Z,36.63
2018-12-31T13:49:56.059Z,31.67
2018-12-31T13:52:25.592Z,34.90
2018-12-31T13:54:55.132Z,32.70
2018-12-31T13:57:24.521Z,46.00
2018-12-31T13:59:53.956Z,25.40
2018-12-31T14:02:23.711Z,26.90
2018-12-31T14:04:53.197Z,41.00
2018-12-31T14:07:22.595Z,107.57
2018-12-31T14:09:52.125Z,36.77
2018-12-31T14:12:21.690Z,104.63
2018-12-31T14:14:51.157Z,65.33
2018-12-31T14:17:20.731Z,48.50
2018-12-31T14:19:51.277Z,35.57
2018-12-31T14:22:20.731Z,45.43
2018-12-31T14:24:50.159Z,50.03
2018-12-31T14:27:19.713Z,36.40
2018-12-31T14:29:49.310Z,59.10
2018-12-31T14:32:18.749Z,62.00
2018-12-31T14:34:48.275Z,309.87
2018-12-31T14:37:19.157Z,44.53
2018-12-31T14:39:48.575Z,44.00
2018-12-31T14:42:18.038Z,44.73
2018-12-31T14:44:47.586Z,71.37
2018-12-31T14:47:18.515Z,49.80
2018-12-31T14:49:50.961Z,52.20
2018-12-31T14:52:20.432Z,54.47
2018-12-31T14:54:50.051Z,99.23
2018-12-31T14:57:19.546Z,116.87
2018-12-31T14:59:49.023Z,106.13
2018-12-31T15:02:18.463Z,137.87
2018-12-31T15:04:47.913Z,135.83
2018-12-31T15:07:17.419Z,119.27
2018-12-31T15:09:46.933Z,119.93
2018-12-31T15:12:16.369Z,128.80
2018-12-31T15:14:45.919Z,177.67
2018-12-31T15:17:15.441Z,128.37
2018-12-31T15:19:44.971Z,129.17
2018-12-31T15:22:14.472Z,152.47
2018-12-31T15:24:44.073Z,150.40
2018-12-31T15:27:13.544Z,146.97
2018-12-31T15:29:43.034Z,142.73
2018-12-31T15:32:12.643Z,126.13
2018-12-31T15:34:42.127Z,102.10
2018-12-31T15:37:11.618Z,114.33
2018-12-31T15:39:41.138Z,143.37
2018-12-31T15:42:10.629Z,192.27
2018-12-31T15:44:40.073Z,144.63
2018-12-31T15:47:09.570Z,155.50
2018-12-31T15:49:39.229Z,212.40
2018-12-31T15:52:08.700Z,203.10
2018-12-31T15:54:40.973Z,230.67
2018-12-31T15:57:11.687Z,215.20
2018-12-31T15:59:41.181Z,233.47
2018-12-31T16:02:10.752Z,216.10
2018-12-31T16:04:40.369Z,190.53
2018-12-31T16:07:09.946Z,185.03
2018-12-31T16:09:40.192Z,239.33
2018-12-31T16:12:09.744Z,245.17
2018-12-31T16:14:39.157Z,213.30
2018-12-31T16:17:09.210Z,178.40
2018-12-31T16:19:38.734Z,214.87
2018-12-31T16:22:08.195Z,217.37
2018-12-31T16:24:37.644Z,210.03
2018-12-31T16:27:07.138Z,241.00
2018-12-31T16:29:36.724Z,229.97
2018-12-31T16:32:06.166Z,297.20
2018-12-31T16:34:35.693Z,333.70
2018-12-31T16:37:05.083Z,303.63
2018-12-31T16:39:34.584Z,248.23
2018-12-31T16:42:04.126Z,236.40
2018-12-31T16:44:33.619Z,223.23
2018-12-31T16:47:03.089Z,226.30
2018-12-31T16:49:32.643Z,238.93
2018-12-31T16:52:02.736Z,259.03
2018-12-31T16:54:33.187Z,239.33
2018-12-31T16:57:02.695Z,206.83
2018-12-31T16:59:32.206Z,184.90
2018-12-31T17:02:01.662Z,198.13
2018-12-31T17:04:31.078Z,183.20
2018-12-31T17:07:00.882Z,170.60
2018-12-31T17:09:30.344Z,177.70
2018-12-31T17:11:59.786Z,148.37
2018-12-31T17:14:29.362Z,155.23
2018-12-31T17:16:58.800Z,164.20
2018-12-31T17:19:28.631Z,167.80
2018-12-31T17:21:58.158Z,142.03
2018-12-31T17:24:27.630Z,117.57
2018-12-31T17:26:57.147Z,122.50
2018-12-31T17:29:26.789Z,118.60
2018-12-31T17:31:56.523Z,123.50
2018-12-31T17:34:25.974Z,124.20
2018-12-31T17:36:55.506Z,118.13
2018-12-31T17:39:25.021Z,124.47
2018-12-31T17:41:54.452Z,136.53
2018-12-31T17:44:23.951Z,153.53
2018-12-31T17:46:53.521Z,155.33
2018-12-31T17:49:23.124Z,133.83
2018-12-31T17:51:55.810Z,150.67
2018-12-31T17:54:23.927Z,144.00
2018-12-31T17:56:53.407Z,125.87
2018-12-31T17:59:22.804Z,137.90
2018-12-31T18:01:52.398Z,163.17
2018-12-31T18:04:21.898Z,223.37
2018-12-31T18:06:51.335Z,210.20
2018-12-31T18:09:20.831Z,191.03
2018-12-31T18:11:50.338Z,210.00
2018-12-31T18:14:19.740Z,205.20
2018-12-31T18:16:49.314Z,215.23
2018-12-31T18:19:19.062Z,209.03
2018-12-31T18:21:48.521Z,277.53
2018-12-31T18:24:17.923Z,256.57
2018-12-31T18:26:47.436Z,170.43
2018-12-31T18:29:16.969Z,129.37
2018-12-31T18:31:46.618Z,125.33
2018-12-31T18:34:16.194Z,127.67
2018-12-31T18:36:45.649Z,143.60
2018-12-31T18:39:15.056Z,159.90
2018-12-31T18:41:44.551Z,142.43
2018-12-31T18:44:14.332Z,147.37
2018-12-31T18:46:43.737Z,163.10
2018-12-31T18:49:13.195Z,144.13
2018-12-31T18:51:42.771Z,122.37
2018-12-31T18:54:12.223Z,150.73
2018-12-31T18:56:42.150Z,154.30
2018-12-31T18:59:11.757Z,148.93
2018-12-31T19:01:41.212Z,161.77
2018-12-31T19:04:10.754Z,147.10
2018-12-31T19:06:40.257Z,169.70
2018-12-31T19:09:10.046Z,177.57
2018-12-31T19:11:39.470Z,183.60
2018-12-31T19:14:08.958Z,178.43
2018-12-31T19:16:38.402Z,159.07
2018-12-31T19:19:07.858Z,151.40
2018-12-31T19:21:37.575Z,147.50
2018-12-31T19:24:07.104Z,127.80
2018-12-31T19:26:36.536Z,131.73
2018-12-31T19:29:05.959Z,127.47
2018-12-31T19:31:35.446Z,95.00
2018-12-31T19:34:05.045Z,102.93
2018-12-31T19:36:34.682Z,92.63
2018-12-31T19:39:05.437Z,101.83
2018-12-31T19:41:34.969Z,105.63
2018-12-31T19:44:04.480Z,105.37
2018-12-31T19:46:34.058Z,85.37
2018-12-31T19:49:03.497Z,79.73
2018-12-31T19:51:32.924Z,98.57
2018-12-31T19:54:03.419Z,120.97
2018-12-31T19:56:36.603Z,102.13
2018-12-31T19:59:06.026Z,98.40
2018-12-31T20:01:36.113Z,91.57
2018-12-31T20:04:05.589Z,102.67
2018-12-31T20:06:35.041Z,121.33
2018-12-31T20:09:05.989Z,141.47
2018-12-31T20:11:35.516Z,152.43
2018-12-31T20:14:05.005Z,159.93
2018-12-31T20:16:34.699Z,219.20
2018-12-31T20:19:04.961Z,183.93
2018-12-31T20:21:34.751Z,161.40
2018-12-31T20:24:04.211Z,152.20
2018-12-31T20:26:33.730Z,147.63
2018-12-31T20:29:03.234Z,185.70
2018-12-31T20:31:32.703Z,195.23
2018-12-31T20:34:02.252Z,209.97
2018-12-31T20:36:31.767Z,225.33
2018-12-31T20:39:01.300Z,244.90
2018-12-31T20:41:30.796Z,228.37
2018-12-31T20:44:00.451Z,195.13
2018-12-31T20:46:29.951Z,157.20
2018-12-31T20:48:59.573Z,137.13
2018-12-31T20:51:29.111Z,119.60
2018-12-31T20:53:58.641Z,137.93
2018-12-31T20:56:28.202Z,145.70
2018-12-31T20:58:57.723Z,134.33
2018-12-31T21:01:27.451Z,136.77
2018-12-31T21:03:56.897Z,154.47
2018-12-31T21:06:26.547Z,175.90
2018-12-31T21:08:56.062Z,156.70
2018-12-31T21:11:25.501Z,117.50
2018-12-31T21:13:55.483Z,93.20
2018-12-31T21:16:24.943Z,88.90
2018-12-31T21:18:54.335Z,112.63
2018-12-31T21:21:23.826Z,135.07
2018-12-31T21:23:53.388Z,159.73
2018-12-31T21:26:23.205Z,148.53
2018-12-31T21:28:52.703Z,145.63
2018-12-31T21:31:22.211Z,132.27
2018-12-31T21:33:51.681Z,115.60
2018-12-31T21:36:21.143Z,94.73
2018-12-31T21:38:51.010Z,87.43
2018-12-31T21:41:20.408Z,102.53
2018-12-31T21:43:49.830Z,91.73
2018-12-31T21:46:19.468Z,111.43
2018-12-31T21:48:49.092Z,117.53
2018-12-31T21:51:18.890Z,112.53
2018-12-31T21:53:48.454Z,110.83
2018-12-31T21:56:17.880Z,121.83
2018-12-31T21:58:47.353Z,114.00
2018-12-31T22:01:16.843Z,107.80
2018-12-31T22:03:46.780Z,109.87
2018-12-31T22:06:16.392Z,101.90
2018-12-31T22:08:45.922Z,80.37
2018-12-31T22:11:15.381Z,79.50
2018-12-31T22:13:44.811Z,113.87
2018-12-31T22:16:14.753Z,226.30
2018-12-31T22:18:44.270Z,362.50
2018-12-31T22:21:13.712Z,425.13
2018-12-31T22:23:43.191Z,343.43
2018-12-31T22:26:12.690Z,294.33
2018-12-31T22:28:42.609Z,303.93
2018-12-31T22:31:12.199Z,313.03
2018-12-31T22:33:41.808Z,281.67
2018-12-31T22:36:11.294Z,282.10
2018-12-31T22:38:40.797Z,256.60
2018-12-31T22:41:10.400Z,152.97
2018-12-31T22:43:39.899Z,126.50
2018-12-31T22:46:09.520Z,106.67
2018-12-31T22:48:38.949Z,106.43
2018-12-31T22:51:08.415Z,115.90
2018-12-31T22:53:38.022Z,114.23
2018-12-31T22:56:07.515Z,139.27
2018-12-31T22:58:37.100Z,99.83
2018-12-31T23:01:06.523Z,103.00
2018-12-31T23:03:36.052Z,111.27
2018-12-31T23:06:05.522Z,114.17
2018-12-31T23:08:35.058Z,115.33
2018-12-31T23:11:04.582Z,96.80
2018-12-31T23:13:40.135Z,89.23
2018-12-31T23:16:11.738Z,122.10
2018-12-31T23:18:41.160Z,106.27
2018-12-31T23:21:10.623Z,84.60
2018-12-31T23:23:40.125Z,91.93
2018-12-31T23:26:09.590Z,89.73
2018-12-31T23:28:39.377Z,89.57
2018-12-31T23:31:08.892Z,98.27
2018-12-31T23:33:38.279Z,92.30
2018-12-31T23:36:07.738Z,100.50
2018-12-31T23:38:37.227Z,95.70
2018-12-31T23:41:06.938Z,116.03
2018-12-31T23:43:36.401Z,103.20
2018-12-31T23:46:05.905Z,92.57
2018-12-31T23:48:35.525Z,79.13
2018-12-31T23:51:04.977Z,84.47
2018-12-31T23:53:34.778Z,121.10
2018-12-31T23:56:04.215Z,171.03
2018-12-31T23:58:33.644Z,228.00
